createdAt,value
2019-05-02T00:02:59.851Z,99834.23
2019-05-02T00:08:02.146Z,99835.74
2019-05-02T00:13:04.652Z,99839.52
2019-05-02T00:18:06.916Z,99838.27
2019-05-02T00:23:09.092Z,99842.98
2019-05-02T00:28:12.306Z,99826.44
2019-05-02T00:33:15.289Z,99827.12
2019-05-02T00:38:17.407Z,99824.28
2019-05-02T00:43:19.504Z,99830.27
2019-05-02T00:48:30.109Z,99827.74
2019-05-02T00:53:34.167Z,99820.83
2019-05-02T00:58:36.339Z,99820.28
2019-05-02T01:03:40.372Z,99809.90
2019-05-02T01:08:42.613Z,99804.26
2019-05-02T01:13:44.695Z,99799.25
2019-05-02T01:18:46.841Z,99798.82
2019-05-02T01:23:49.220Z,99793.17
2019-05-02T01:29:01.360Z,99797.16
2019-05-02T01:34:18.086Z,99792.62
2019-05-02T01:39:19.081Z,99786.38
2019-05-02T01:44:21.050Z,99782.27
2019-05-02T01:49:23.171Z,99783.45
2019-05-02T01:54:25.512Z,99781.50
2019-05-02T01:59:29.083Z,99780.86
2019-05-02T02:04:31.481Z,99778.34
2019-05-02T02:09:33.674Z,99768.16
2019-05-02T02:14:38.863Z,99764.70
2019-05-02T02:19:46.503Z,99757.80
2019-05-02T02:25:08.334Z,99757.39
2019-05-02T02:30:10.568Z,99752.44
2019-05-02T02:35:13.014Z,99757.32
2019-05-02T02:40:16.745Z,99754.80
2019-05-02T02:45:37.978Z,99768.91
2019-05-02T02:50:43.053Z,99768.11
2019-05-02T02:55:44.076Z,99770.89
2019-05-02T03:00:47.547Z,99766.98
2019-05-02T03:05:50.446Z,99767.80
2019-05-02T03:10:53.156Z,99765.77
2019-05-02T03:16:00.327Z,99760.24
2019-05-02T03:21:00.253Z,99755.14
2019-05-02T03:26:07.842Z,99756.00
2019-05-02T03:31:22.039Z,99746.53
2019-05-02T03:36:25.905Z,99739.83
2019-05-02T03:41:20.715Z,99745.49
2019-05-02T03:46:20.777Z,99746.93
2019-05-02T03:51:25.240Z,99753.44
2019-05-02T03:56:27.191Z,99743.59
2019-05-02T04:01:34.804Z,99744.42
2019-05-02T04:06:33.628Z,99747.22
2019-05-02T04:11:39.210Z,99735.45
2019-05-02T04:16:40.119Z,99742.48
2019-05-02T04:21:43.010Z,99745.12
2019-05-02T04:26:54.021Z,99744.05
2019-05-02T04:31:49.230Z,99742.50
2019-05-02T04:36:59.408Z,99742.13
2019-05-02T04:41:58.400Z,99739.00
2019-05-02T04:47:09.922Z,99752.19
2019-05-02T04:52:07.875Z,99748.30
2019-05-02T04:57:08.491Z,99747.14
2019-05-02T05:02:10.933Z,99747.56
2019-05-02T05:07:13.064Z,99750.45
2019-05-02T05:12:15.243Z,99750.97
2019-05-02T05:17:19.701Z,99753.72
2019-05-02T05:22:21.240Z,99758.12
2019-05-02T05:27:23.981Z,99761.80
2019-05-02T05:32:37.582Z,99766.49
2019-05-02T05:37:43.174Z,99770.16
2019-05-02T05:42:43.853Z,99767.59
2019-05-02T05:47:47.792Z,99769.71
2019-05-02T05:52:51.840Z,99763.67
2019-05-02T05:58:01.760Z,99765.78
2019-05-02T06:03:10.318Z,99768.31
2019-05-02T06:08:04.723Z,99769.30
2019-05-02T06:13:10.827Z,99768.47
2019-05-02T06:18:14.777Z,99759.95
2019-05-02T06:23:16.886Z,99759.11
2019-05-02T06:28:20.173Z,99763.71
2019-05-02T06:33:25.879Z,99763.20
2019-05-02T06:38:26.336Z,99768.58
2019-05-02T06:43:28.393Z,99763.94
2019-05-02T06:48:30.634Z,99773.73
2019-05-02T06:53:35.065Z,99765.15
2019-05-02T06:58:37.065Z,99760.55
2019-05-02T07:03:41.251Z,99758.70
2019-05-02T07:08:44.893Z,99760.41
2019-05-02T07:13:46.886Z,99762.37
2019-05-02T07:18:52.135Z,99761.38
2019-05-02T07:23:55.371Z,99767.34
2019-05-02T07:28:57.503Z,99758.02
2019-05-02T07:33:59.622Z,99762.07
2019-05-02T07:39:05.186Z,99754.98
2019-05-02T07:44:06.136Z,99761.56
2019-05-02T07:49:09.265Z,99757.06
2019-05-02T07:54:12.379Z,99752.11
2019-05-02T07:59:14.473Z,99746.11
2019-05-02T08:04:16.636Z,99746.53
2019-05-02T08:09:19.006Z,99736.05
2019-05-02T08:14:20.981Z,99740.03
2019-05-02T08:19:23.596Z,99738.34
2019-05-02T08:24:27.095Z,99741.48
2019-05-02T08:29:30.805Z,99733.13
2019-05-02T08:34:33.168Z,99728.03
2019-05-02T08:39:35.422Z,99729.20
2019-05-02T08:44:50.387Z,99727.08
2019-05-02T08:49:42.901Z,99733.11
2019-05-02T08:54:45.019Z,99734.45
2019-05-02T08:59:48.523Z,99725.10
2019-05-02T09:04:58.296Z,99715.40
2019-05-02T09:09:55.564Z,99705.42
2019-05-02T09:14:58.900Z,99701.06
2019-05-02T09:20:05.448Z,99702.56
2019-05-02T09:25:05.913Z,99700.41
2019-05-02T09:30:08.825Z,99695.70
2019-05-02T09:35:11.759Z,99700.48
2019-05-02T09:40:16.777Z,99683.63
2019-05-02T09:45:27.890Z,99678.23
2019-05-02T09:50:31.385Z,99672.97
2019-05-02T09:55:31.876Z,99668.22
2019-05-02T10:01:01.862Z,99659.17
2019-05-02T10:06:08.362Z,99656.43
2019-05-02T10:11:11.643Z,99646.64
2019-05-02T10:16:18.016Z,99632.86
2019-05-02T10:21:17.641Z,99637.55
2019-05-02T10:26:24.169Z,99633.48
2019-05-02T10:31:27.472Z,99625.06
2019-05-02T10:36:27.976Z,99620.78
2019-05-02T10:41:31.740Z,99620.62
2019-05-02T10:46:42.033Z,99610.86
2019-05-02T10:51:49.703Z,99614.80
2019-05-02T10:56:48.256Z,99610.03
2019-05-02T11:02:18.534Z,99606.92
2019-05-02T11:07:22.730Z,99601.71
2019-05-02T11:12:56.429Z,99596.63
2019-05-02T11:17:58.706Z,99599.12
2019-05-02T11:23:02.205Z,99599.84
2019-05-02T11:28:07.110Z,99592.83
2019-05-02T11:33:08.721Z,99591.84
2019-05-02T11:38:13.265Z,99588.89
2019-05-02T11:43:14.846Z,99594.12
2019-05-02T11:48:19.741Z,99596.37
2019-05-02T11:53:25.354Z,99587.03
2019-05-02T11:58:25.125Z,99577.45
2019-05-02T12:03:38.598Z,99584.39
2019-05-02T12:08:45.157Z,99574.80
2019-05-02T12:13:47.413Z,99594.03
2019-05-02T12:18:49.133Z,99570.48
2019-05-02T12:23:52.641Z,99575.96
2019-05-02T12:28:55.098Z,99579.09
2019-05-02T12:33:59.024Z,99595.11
2019-05-02T12:39:02.409Z,99591.23
2019-05-02T12:44:05.863Z,99584.23
2019-05-02T12:49:08.027Z,99588.48
2019-05-02T12:54:12.222Z,99584.11
2019-05-02T12:59:15.659Z,99591.50
2019-05-02T13:04:17.767Z,99585.56
2019-05-02T13:09:20.333Z,99574.25
2019-05-02T13:14:25.512Z,99576.22
2019-05-02T13:19:38.014Z,99570.75
2019-05-02T13:24:38.105Z,99565.01
2019-05-02T13:29:52.320Z,99572.66
2019-05-02T13:35:34.233Z,99564.58
2019-05-02T13:40:43.386Z,99558.95
2019-05-02T13:51:28.918Z,99554.38
2019-05-02T13:56:52.844Z,99547.14
2019-05-02T14:01:55.063Z,99545.59
2019-05-02T14:06:57.252Z,99538.19
2019-05-02T14:12:17.826Z,99535.05
2019-05-02T14:17:20.131Z,99526.55
2019-05-02T14:22:22.687Z,99514.21
2019-05-02T14:27:25.012Z,99510.16
2019-05-02T14:32:27.065Z,99504.75
2019-05-02T14:37:29.160Z,99503.25
2019-05-02T14:42:32.225Z,99497.22
2019-05-02T14:47:34.569Z,99498.41
2019-05-02T14:52:37.211Z,99495.32
2019-05-02T14:57:42.746Z,99484.25
2019-05-02T15:02:49.070Z,99475.74
2019-05-02T15:07:48.536Z,99466.80
2019-05-02T15:12:51.675Z,99466.59
2019-05-02T15:17:54.727Z,99458.44
2019-05-02T15:22:56.718Z,99454.46
2019-05-02T15:28:02.020Z,99449.16
2019-05-02T15:33:12.396Z,99436.43
2019-05-02T15:38:24.072Z,99435.31
2019-05-02T15:43:18.710Z,99433.00
2019-05-02T15:48:26.071Z,99427.03
2019-05-02T15:53:32.455Z,99417.28
2019-05-02T15:58:34.858Z,99419.66
2019-05-02T16:03:46.255Z,99412.06
2019-05-02T16:08:48.843Z,99416.37
2019-05-02T16:13:55.677Z,99402.67
2019-05-02T16:18:56.840Z,99406.25
2019-05-02T16:24:17.323Z,99409.56
2019-05-02T16:29:26.627Z,99406.17
2019-05-02T16:34:27.399Z,99400.17
2019-05-02T16:39:27.948Z,99394.50
2019-05-02T16:44:30.018Z,99405.39
2019-05-02T16:49:32.291Z,99403.34
2019-05-02T16:54:41.528Z,99406.27
2019-05-02T16:59:38.607Z,99405.22
2019-05-02T17:04:42.740Z,99393.48
2019-05-02T17:10:19.480Z,99401.03
2019-05-02T17:15:35.740Z,99396.28
2019-05-02T17:20:39.048Z,99401.01
2019-05-02T17:25:41.599Z,99402.59
2019-05-02T17:30:43.991Z,99404.27
2019-05-02T17:35:49.915Z,99402.73
2019-05-02T17:40:53.709Z,99397.13
2019-05-02T17:45:56.403Z,99398.18
2019-05-02T17:51:13.680Z,99394.53
2019-05-02T17:56:20.432Z,99388.94
2019-05-02T18:01:31.817Z,99391.26
2019-05-02T18:06:35.521Z,99391.20
2019-05-02T18:11:37.904Z,99400.17
2019-05-02T18:16:41.868Z,99397.22
2019-05-02T18:21:44.221Z,99400.25
2019-05-02T18:26:46.383Z,99393.88
2019-05-02T18:31:48.608Z,99390.23
2019-05-02T18:36:52.402Z,99394.08
2019-05-02T18:41:55.144Z,99390.52
2019-05-02T18:46:57.970Z,99395.73
2019-05-02T18:52:01.789Z,99395.66
2019-05-02T18:57:05.257Z,99403.63
2019-05-02T19:02:07.548Z,99408.08
2019-05-02T19:07:14.306Z,99407.23
2019-05-02T19:12:22.559Z,99399.48
2019-05-02T19:17:21.929Z,99395.09
2019-05-02T19:22:32.084Z,99395.53
2019-05-02T19:27:57.897Z,99396.99
2019-05-02T19:33:03.621Z,99420.66
2019-05-02T19:38:04.960Z,99431.80
2019-05-02T19:43:14.725Z,99430.20
2019-05-02T19:48:18.971Z,99436.77
2019-05-02T19:53:22.916Z,99439.28
2019-05-02T19:58:25.315Z,99445.48
2019-05-02T20:03:27.632Z,99443.32
2019-05-02T20:08:32.545Z,99441.88
2019-05-02T20:13:35.078Z,99441.05
2019-05-02T20:18:42.536Z,99440.28
2019-05-02T20:23:43.231Z,99439.67
2019-05-02T20:28:45.210Z,99435.20
2019-05-02T20:33:47.457Z,99443.70
2019-05-02T20:38:50.040Z,99450.13
2019-05-02T20:43:52.025Z,99454.20
2019-05-02T20:48:54.215Z,99449.09
2019-05-02T20:53:56.286Z,99454.73
2019-05-02T20:58:58.466Z,99458.23
2019-05-02T21:04:02.578Z,99458.06
2019-05-02T21:09:14.613Z,99453.98
2019-05-02T21:14:16.812Z,99445.34
2019-05-02T21:19:18.871Z,99444.12
2019-05-02T21:24:22.202Z,99445.44
2019-05-02T21:29:24.293Z,99443.02
2019-05-02T21:34:26.328Z,99439.91
2019-05-02T21:39:28.362Z,99444.13
2019-05-02T21:44:31.560Z,99443.42
2019-05-02T21:49:49.749Z,99440.73
2019-05-02T21:54:59.181Z,99446.88
2019-05-02T22:00:02.458Z,99453.22
2019-05-02T22:05:05.544Z,99441.83
2019-05-02T22:10:08.127Z,99446.69
2019-05-02T22:15:12.767Z,99457.45
2019-05-02T22:20:15.071Z,99459.66
2019-05-02T22:25:17.033Z,99464.05
2019-05-02T22:30:19.128Z,99462.63
2019-05-02T22:35:21.724Z,99465.11
2019-05-02T22:40:25.018Z,99472.39
2019-05-02T22:45:27.191Z,99465.54
2019-05-02T22:50:32.448Z,99461.45
2019-05-02T22:55:34.287Z,99467.92
2019-05-02T23:00:36.378Z,99460.63
2019-05-02T23:05:38.400Z,99463.51
2019-05-02T23:10:41.637Z,99459.77
2019-05-02T23:15:43.835Z,99469.00
2019-05-02T23:20:45.943Z,99468.80
2019-05-02T23:25:59.078Z,99467.09
2019-05-02T23:31:02.660Z,99477.02
2019-05-02T23:36:04.944Z,99470.56
2019-05-02T23:41:07.019Z,99468.36
2019-05-02T23:46:08.991Z,99476.33
2019-05-02T23:51:12.099Z,99481.19
2019-05-02T23:56:23.913Z,99476.45
